KMMT/MMT METAR and TAF weather

Enter ICAO airport designator
Station Type Date Time Source
KMMT METAR 2019/12/13 02:56 UTC NOAA

KMMT 130256Z AUTO 05007KT 10SM OVC025 06/01 A3041 RMK AO2 RAB0158E27DZB27E40 SLP302 P0000 60000 T00570012 55008 $


Station Type Date Time Source
KMMT Decoded METAR 2019/12/13 02:56 UTC NOAA

McEntire Air National Guard Weather Facility Base, SC, United States (KMMT) 33-55N 080-48W
Dec 12, 2019 - 09:56 PM EST / 2019.12.13 0256 UTC
Wind: from the NE (050 degrees) at 8 MPH (7 KT):0
Visibility: 10 mile(s):0
Sky conditions: overcast
Precipitation last hour: A trace
Temperature: 42.3 F (5.7 C)
Dew Point: 34.2 F (1.2 C)
Relative Humidity: 72%
Pressure (altimeter): 30.41 in. Hg (1029 hPa)
Pressure tendency: 0.02 inches (0.8 hPa) lower than three hours ago
ob: KMMT 130256Z AUTO 05007KT 10SM OVC025 06/01 A3041 RMK AO2 RAB0158E27DZB27E40 SLP302 P0000 60000 T00570012 55008
cycle: 3

Station Type Date Time Source
KMMT TAF 2019/12/13 00:21 UTC NOAA

TAF TAF KMMT 130000Z 1300/1406 05012KT 9999 BKN030 510203 QNH3042INS
BECMG 1302/1303 06012G18KT 9999 OVC025 520204 QNH3038INS
BECMG 1305/1306 04009KT 9999 BKN010 OVC020 WS020/13041KT 510252 520453 QNH3034INS
BECMG 1308/1309 05006KT 9000 -RA OVC003 WS020/14041KT 510202 520404 QNH3012INS
BECMG 1317/1318 34009KT 4800 SHRA OVC001 520013 QNH3002INS
BECMG 1320/1321 32006KT 8000 RA OVC001 QNH2995INS
BECMG 1323/1324 33006KT 8000 -RA OVC001 QNH2993INS
BECMG 1402/1403 24006KT 8000 -RA OVC000 QNH2987INS
BECMG 1405/1406 25006KT 8000 DZ OVC006 QNH2980INS TX10/1301Z TN03/1308Z

Example: see airport list